sensor_id;sensor_type;location;lat;lon;timestamp;pressure;altitude;pressure_sealevel;temperature;humidity
21290;BME280;10804;48.988;2.408;2023-01-15T00:01:21;99832.03;;;11.66;73.34
21290;BME280;10804;48.988;2.408;2023-01-15T00:03:50;99837.31;;;11.64;73.29
21290;BME280;10804;48.988;2.408;2023-01-15T00:06:18;99836.53;;;11.63;73.38
21290;BME280;10804;48.988;2.408;2023-01-15T00:08:46;99820.84;;;11.63;73.59
21290;BME280;10804;48.988;2.408;2023-01-15T00:11:15;99830.53;;;11.61;73.61
21290;BME280;10804;48.988;2.408;2023-01-15T00:13:42;99825.31;;;11.61;73.61
21290;BME280;10804;48.988;2.408;2023-01-15T00:16:12;99827.06;;;11.60;73.55
21290;BME280;10804;48.988;2.408;2023-01-15T00:18:40;99827.06;;;11.60;73.59
21290;BME280;10804;48.988;2.408;2023-01-15T00:21:10;99833.97;;;11.61;73.64
21290;BME280;10804;48.988;2.408;2023-01-15T00:23:38;99840.19;;;11.58;73.55
21290;BME280;10804;48.988;2.408;2023-01-15T00:26:28;99835.06;;;11.55;73.58
21290;BME280;10804;48.988;2.408;2023-01-15T00:29:14;99835.88;;;11.57;73.71
21290;BME280;10804;48.988;2.408;2023-01-15T00:31:43;99837.72;;;11.54;73.44
21290;BME280;10804;48.988;2.408;2023-01-15T00:34:16;99842.97;;;11.54;73.56
21290;BME280;10804;48.988;2.408;2023-01-15T00:36:44;99842.13;;;11.53;73.68
21290;BME280;10804;48.988;2.408;2023-01-15T00:39:11;99836.91;;;11.53;73.63
21290;BME280;10804;48.988;2.408;2023-01-15T00:41:40;99836.91;;;11.53;73.41
21290;BME280;10804;48.988;2.408;2023-01-15T00:44:07;99842.13;;;11.53;73.46
21290;BME280;10804;48.988;2.408;2023-01-15T00:46:35;99842.25;;;11.50;73.64
21290;BME280;10804;48.988;2.408;2023-01-15T00:49:03;99827.44;;;11.51;73.47
21290;BME280;10804;48.988;2.408;2023-01-15T00:51:31;99834.50;;;11.49;73.68
21290;BME280;10804;48.988;2.408;2023-01-15T00:53:58;99843.94;;;11.51;73.60
21290;BME280;10804;48.988;2.408;2023-01-15T00:56:26;99837.16;;;11.48;73.51
21290;BME280;10804;48.988;2.408;2023-01-15T00:58:55;99831.06;;;11.47;73.49
21290;BME280;10804;48.988;2.408;2023-01-15T01:01:22;99829.38;;;11.46;73.69
21290;BME280;10804;48.988;2.408;2023-01-15T01:03:50;99827.69;;;11.45;73.54
21290;BME280;10804;48.988;2.408;2023-01-15T01:06:18;99839.00;;;11.46;73.51
21290;BME280;10804;48.988;2.408;2023-01-15T01:08:46;99823.34;;;11.46;73.73
21290;BME280;10804;48.988;2.408;2023-01-15T01:11:16;99839.88;;;11.44;73.73
21290;BME280;10804;48.988;2.408;2023-01-15T01:13:44;99833.06;;;11.42;73.74
21290;BME280;10804;48.988;2.408;2023-01-15T01:16:32;99815.75;;;11.40;73.60
21290;BME280;10804;48.988;2.408;2023-01-15T01:19:04;99821.91;;;11.39;73.79
21290;BME280;10804;48.988;2.408;2023-01-15T01:21:31;99832.34;;;11.39;73.53
21290;BME280;10804;48.988;2.408;2023-01-15T01:23:59;99838.47;;;11.38;73.79
21290;BME280;10804;48.988;2.408;2023-01-15T01:26:28;99849.81;;;11.37;73.76
21290;BME280;10804;48.988;2.408;2023-01-15T01:28:56;99854.25;;;11.35;73.72
21290;BME280;10804;48.988;2.408;2023-01-15T01:31:24;99846.31;;;11.38;73.69
21290;BME280;10804;48.988;2.408;2023-01-15T01:33:54;99838.59;;;11.35;73.71
21290;BME280;10804;48.988;2.408;2023-01-15T01:36:26;99841.16;;;11.36;73.60
21290;BME280;10804;48.988;2.408;2023-01-15T01:38:54;99856.88;;;11.35;73.50
21290;BME280;10804;48.988;2.408;2023-01-15T01:41:22;99857.78;;;11.34;73.59
21290;BME280;10804;48.988;2.408;2023-01-15T01:43:55;99869.97;;;11.33;73.61
21290;BME280;10804;48.988;2.408;2023-01-15T01:46:23;99869.97;;;11.33;73.53
21290;BME280;10804;48.988;2.408;2023-01-15T01:48:56;99853.47;;;11.33;73.68
21290;BME280;10804;48.988;2.408;2023-01-15T01:51:27;99847.50;;;11.31;73.68
21290;BME280;10804;48.988;2.408;2023-01-15T01:53:55;99857.00;;;11.32;73.73
21290;BME280;10804;48.988;2.408;2023-01-15T01:56:24;99859.69;;;11.30;73.65
21290;BME280;10804;48.988;2.408;2023-01-15T01:58:53;99857.94;;;11.31;73.70
21290;BME280;10804;48.988;2.408;2023-01-15T02:01:23;99861.56;;;11.27;73.69
21290;BME280;10804;48.988;2.408;2023-01-15T02:03:52;99858.03;;;11.28;73.54
21290;BME280;10804;48.988;2.408;2023-01-15T02:06:21;99858.03;;;11.28;73.61
21290;BME280;10804;48.988;2.408;2023-01-15T02:08:48;99853.75;;;11.27;73.63
21290;BME280;10804;48.988;2.408;2023-01-15T02:11:19;99843.44;;;11.24;73.56
21290;BME280;10804;48.988;2.408;2023-01-15T02:13:54;99869.41;;;11.27;73.93
21290;BME280;10804;48.988;2.408;2023-01-15T02:16:27;99874.66;;;11.25;73.73
21290;BME280;10804;48.988;2.408;2023-01-15T02:19:06;99886.03;;;11.24;73.48
21290;BME280;10804;48.988;2.408;2023-01-15T02:21:47;99890.28;;;11.27;73.69
21290;BME280;10804;48.988;2.408;2023-01-15T02:24:21;99878.28;;;11.23;73.66
21290;BME280;10804;48.988;2.408;2023-01-15T02:26:57;99887.84;;;11.22;73.47
21290;BME280;10804;48.988;2.408;2023-01-15T02:29:31;99887.00;;;11.22;73.67
21290;BME280;10804;48.988;2.408;2023-01-15T02:32:05;99896.56;;;11.23;73.69
21290;BME280;10804;48.988;2.408;2023-01-15T02:34:36;99905.25;;;11.22;73.82
21290;BME280;10804;48.988;2.408;2023-01-15T02:37:11;99907.97;;;11.20;73.49
21290;BME280;10804;48.988;2.408;2023-01-15T02:39:41;99890.66;;;11.18;73.57
21290;BME280;10804;48.988;2.408;2023-01-15T02:42:12;99902.78;;;11.19;73.69
21290;BME280;10804;48.988;2.408;2023-01-15T02:44:48;99910.63;;;11.19;73.55
21290;BME280;10804;48.988;2.408;2023-01-15T02:47:19;99911.53;;;11.18;73.78
21290;BME280;10804;48.988;2.408;2023-01-15T02:49:49;99907.25;;;11.17;73.60
21290;BME280;10804;48.988;2.408;2023-01-15T02:52:21;99922.94;;;11.15;73.82
21290;BME280;10804;48.988;2.408;2023-01-15T02:54:54;99918.59;;;11.16;73.61
21290;BME280;10804;48.988;2.408;2023-01-15T02:57:28;99924.63;;;11.16;73.63
21290;BME280;10804;48.988;2.408;2023-01-15T02:59:59;99914.34;;;11.13;73.62
21290;BME280;10804;48.988;2.408;2023-01-15T03:02:32;99916.91;;;11.15;73.58
21290;BME280;10804;48.988;2.408;2023-01-15T03:05:06;99929.09;;;11.14;73.71
21290;BME280;10804;48.988;2.408;2023-01-15T03:07:37;99947.34;;;11.14;73.63
21290;BME280;10804;48.988;2.408;2023-01-15T03:10:09;99956.19;;;11.10;73.47
21290;BME280;10804;48.988;2.408;2023-01-15T03:12:43;99958.03;;;11.08;73.78
21290;BME280;10804;48.988;2.408;2023-01-15T03:15:46;99951.69;;;11.14;73.63
21290;BME280;10804;48.988;2.408;2023-01-15T03:18:41;99951.97;;;11.08;73.64
21290;BME280;10804;48.988;2.408;2023-01-15T03:21:12;99947.59;;;11.08;73.77
21290;BME280;10804;48.988;2.408;2023-01-15T03:23:45;99951.16;;;11.06;73.77
21290;BME280;10804;48.988;2.408;2023-01-15T03:26:13;99938.97;;;11.06;73.86
21290;BME280;10804;48.988;2.408;2023-01-15T03:28:45;99938.13;;;11.06;73.78
21290;BME280;10804;48.988;2.408;2023-01-15T03:31:14;99949.41;;;11.06;73.78
21290;BME280;10804;48.988;2.408;2023-01-15T03:33:42;99954.69;;;11.05;73.71
21290;BME280;10804;48.988;2.408;2023-01-15T03:36:14;99950.34;;;11.05;73.82
21290;BME280;10804;48.988;2.408;2023-01-15T03:38:45;99944.34;;;11.03;73.91
21290;BME280;10804;48.988;2.408;2023-01-15T03:41:34;99926.94;;;11.02;73.85
21290;BME280;10804;48.988;2.408;2023-01-15T03:44:14;99914.22;;;10.95;73.71
21290;BME280;10804;48.988;2.408;2023-01-15T03:46:51;99921.00;;;10.99;73.94
21290;BME280;10804;48.988;2.408;2023-01-15T03:49:28;99921.00;;;10.99;73.71
21290;BME280;10804;48.988;2.408;2023-01-15T03:52:04;99915.00;;;10.97;73.90
21290;BME280;10804;48.988;2.408;2023-01-15T03:54:41;99915.97;;;10.94;73.79
21290;BME280;10804;48.988;2.408;2023-01-15T03:57:15;99915.94;;;10.96;73.84
21290;BME280;10804;48.988;2.408;2023-01-15T03:59:49;99919.59;;;10.92;73.85
21290;BME280;10804;48.988;2.408;2023-01-15T04:02:18;99929.88;;;10.95;73.88
21290;BME280;10804;48.988;2.408;2023-01-15T04:04:49;99921.28;;;10.93;73.88
21290;BME280;10804;48.988;2.408;2023-01-15T04:07:18;99917.84;;;10.91;73.63
21290;BME280;10804;48.988;2.408;2023-01-15T04:09:46;99914.38;;;10.92;73.78
21290;BME280;10804;48.988;2.408;2023-01-15T04:12:14;99911.91;;;10.87;73.96
21290;BME280;10804;48.988;2.408;2023-01-15T04:14:47;99920.56;;;10.89;73.87
21290;BME280;10804;48.988;2.408;2023-01-15T04:17:17;99914.47;;;10.89;73.84
21290;BME280;10804;48.988;2.408;2023-01-15T04:19:45;99917.03;;;10.90;73.77
21290;BME280;10804;48.988;2.408;2023-01-15T04:22:13;99904.91;;;10.89;73.79
21290;BME280;10804;48.988;2.408;2023-01-15T04:24:40;99909.38;;;10.86;73.96
21290;BME280;10804;48.988;2.408;2023-01-15T04:27:08;99925.81;;;10.88;73.83
21290;BME280;10804;48.988;2.408;2023-01-15T04:29:35;99917.31;;;10.83;73.94
21290;BME280;10804;48.988;2.408;2023-01-15T04:32:04;99925.09;;;10.84;73.83
21290;BME280;10804;48.988;2.408;2023-01-15T04:34:31;99926.84;;;10.84;73.92
21290;BME280;10804;48.988;2.408;2023-01-15T04:37:00;99925.13;;;10.83;74.00
21290;BME280;10804;48.988;2.408;2023-01-15T04:39:28;99926.06;;;10.82;73.88
21290;BME280;10804;48.988;2.408;2023-01-15T04:41:55;99932.19;;;10.81;73.87
21290;BME280;10804;48.988;2.408;2023-01-15T04:44:40;99940.91;;;10.80;73.96
21290;BME280;10804;48.988;2.408;2023-01-15T04:47:09;99954.88;;;10.79;73.97
21290;BME280;10804;48.988;2.408;2023-01-15T04:49:36;99954.97;;;10.76;74.02
21290;BME280;10804;48.988;2.408;2023-01-15T04:52:03;99959.22;;;10.78;73.90
21290;BME280;10804;48.988;2.408;2023-01-15T04:54:31;99961.06;;;10.76;74.15
21290;BME280;10804;48.988;2.408;2023-01-15T04:56:58;99965.41;;;10.76;74.01
21290;BME280;10804;48.988;2.408;2023-01-15T04:59:26;99958.56;;;10.73;74.04
21290;BME280;10804;48.988;2.408;2023-01-15T05:01:53;99971.53;;;10.75;73.96
21290;BME280;10804;48.988;2.408;2023-01-15T05:04:22;99961.06;;;10.76;73.78
21290;BME280;10804;48.988;2.408;2023-01-15T05:06:49;99969.00;;;10.73;74.00
21290;BME280;10804;48.988;2.408;2023-01-15T05:09:18;99972.44;;;10.74;73.94
21290;BME280;10804;48.988;2.408;2023-01-15T05:11:45;99968.19;;;10.71;73.93
21290;BME280;10804;48.988;2.408;2023-01-15T05:14:13;99970.88;;;10.70;73.98
21290;BME280;10804;48.988;2.408;2023-01-15T05:16:40;99983.09;;;10.68;74.15
21290;BME280;10804;48.988;2.408;2023-01-15T05:19:08;99986.53;;;10.70;73.97
21290;BME280;10804;48.988;2.408;2023-01-15T05:21:40;99984.00;;;10.67;73.96
21290;BME280;10804;48.988;2.408;2023-01-15T05:24:10;99981.41;;;10.67;74.01
21290;BME280;10804;48.988;2.408;2023-01-15T05:26:39;99981.41;;;10.67;74.00
21290;BME280;10804;48.988;2.408;2023-01-15T05:29:06;99978.94;;;10.64;73.90
21290;BME280;10804;48.988;2.408;2023-01-15T05:31:33;99977.22;;;10.63;73.99
21290;BME280;10804;48.988;2.408;2023-01-15T05:34:01;99979.84;;;10.63;73.91
21290;BME280;10804;48.988;2.408;2023-01-15T05:36:29;99975.53;;;10.62;73.98
21290;BME280;10804;48.988;2.408;2023-01-15T05:38:59;99975.44;;;10.63;73.96
21290;BME280;10804;48.988;2.408;2023-01-15T05:41:27;99981.63;;;10.61;74.02
21290;BME280;10804;48.988;2.408;2023-01-15T05:44:12;99988.66;;;10.59;73.95
21290;BME280;10804;48.988;2.408;2023-01-15T05:46:41;99990.38;;;10.60;73.86
21290;BME280;10804;48.988;2.408;2023-01-15T05:49:11;99995.69;;;10.57;73.88
21290;BME280;10804;48.988;2.408;2023-01-15T05:51:39;99989.63;;;10.56;73.95
21290;BME280;10804;48.988;2.408;2023-01-15T05:54:12;99994.00;;;10.56;73.91
21290;BME280;10804;48.988;2.408;2023-01-15T05:56:39;99998.34;;;10.55;74.01
21290;BME280;10804;48.988;2.408;2023-01-15T05:59:07;99995.75;;;10.55;73.94
21290;BME280;10804;48.988;2.408;2023-01-15T06:01:35;100004.44;;;10.56;73.90
21290;BME280;10804;48.988;2.408;2023-01-15T06:04:04;100002.75;;;10.55;74.01
21290;BME280;10804;48.988;2.408;2023-01-15T06:06:32;100011.47;;;10.54;73.83
21290;BME280;10804;48.988;2.408;2023-01-15T06:09:00;100017.56;;;10.53;73.91
21290;BME280;10804;48.988;2.408;2023-01-15T06:11:29;100019.38;;;10.51;73.82
21290;BME280;10804;48.988;2.408;2023-01-15T06:13:56;100029.97;;;10.46;74.02
21290;BME280;10804;48.988;2.408;2023-01-15T06:16:24;100031.59;;;10.50;74.05
21290;BME280;10804;48.988;2.408;2023-01-15T06:18:52;100046.38;;;10.50;73.82
21290;BME280;10804;48.988;2.408;2023-01-15T06:21:19;100031.63;;;10.49;73.96
21290;BME280;10804;48.988;2.408;2023-01-15T06:23:46;100041.16;;;10.50;73.81
21290;BME280;10804;48.988;2.408;2023-01-15T06:26:16;100046.47;;;10.47;73.86
21290;BME280;10804;48.988;2.408;2023-01-15T06:28:45;100052.59;;;10.46;74.09
21290;BME280;10804;48.988;2.408;2023-01-15T06:31:15;100048.28;;;10.45;73.90
21290;BME280;10804;48.988;2.408;2023-01-15T06:33:43;100051.75;;;10.45;73.82
21290;BME280;10804;48.988;2.408;2023-01-15T06:36:12;100053.50;;;10.45;74.06
21290;BME280;10804;48.988;2.408;2023-01-15T06:38:41;100058.69;;;10.45;73.97
21290;BME280;10804;48.988;2.408;2023-01-15T06:41:12;100077.84;;;10.44;73.78
21290;BME280;10804;48.988;2.408;2023-01-15T06:43:55;100083.06;;;10.44;74.04
21290;BME280;10804;48.988;2.408;2023-01-15T06:46:43;100090.09;;;10.42;73.85
21290;BME280;10804;48.988;2.408;2023-01-15T06:49:29;100095.44;;;10.39;74.08
21290;BME280;10804;48.988;2.408;2023-01-15T06:51:56;100102.25;;;10.41;73.89
21290;BME280;10804;48.988;2.408;2023-01-15T06:54:24;100094.59;;;10.37;73.97
21290;BME280;10804;48.988;2.408;2023-01-15T06:56:51;100108.47;;;10.39;74.09
21290;BME280;10804;48.988;2.408;2023-01-15T06:59:20;100097.13;;;10.40;73.90
21290;BME280;10804;48.988;2.408;2023-01-15T07:01:47;100120.63;;;10.38;73.90
21290;BME280;10804;48.988;2.408;2023-01-15T07:04:15;100118.19;;;10.34;73.78
21290;BME280;10804;48.988;2.408;2023-01-15T07:06:42;100125.88;;;10.37;73.97
21290;BME280;10804;48.988;2.408;2023-01-15T07:09:09;100128.59;;;10.34;74.08
21290;BME280;10804;48.988;2.408;2023-01-15T07:11:37;100125.22;;;10.32;73.72
21290;BME280;10804;48.988;2.408;2023-01-15T07:14:15;100140.84;;;10.32;73.94
21290;BME280;10804;48.988;2.408;2023-01-15T07:16:43;100138.31;;;10.29;73.98
21290;BME280;10804;48.988;2.408;2023-01-15T07:19:11;100145.25;;;10.30;74.12
21290;BME280;10804;48.988;2.408;2023-01-15T07:21:38;100156.53;;;10.30;73.71
21290;BME280;10804;48.988;2.408;2023-01-15T07:24:06;100158.50;;;10.24;74.02
21290;BME280;10804;48.988;2.408;2023-01-15T07:26:34;100160.28;;;10.22;73.97
21290;BME280;10804;48.988;2.408;2023-01-15T07:29:01;100173.31;;;10.22;73.98
21290;BME280;10804;48.988;2.408;2023-01-15T07:31:29;100176.78;;;10.22;74.15
21290;BME280;10804;48.988;2.408;2023-01-15T07:33:58;100165.50;;;10.22;73.96
21290;BME280;10804;48.988;2.408;2023-01-15T07:36:25;100163.78;;;10.21;73.85
21290;BME280;10804;48.988;2.408;2023-01-15T07:38:52;100169.00;;;10.21;73.97
21290;BME280;10804;48.988;2.408;2023-01-15T07:41:20;100157.81;;;10.17;73.90
21290;BME280;10804;48.988;2.408;2023-01-15T07:44:07;100157.06;;;10.14;73.92
21290;BME280;10804;48.988;2.408;2023-01-15T07:46:52;100157.91;;;10.16;74.17
21290;BME280;10804;48.988;2.408;2023-01-15T07:49:38;100159.69;;;10.14;74.15
21290;BME280;10804;48.988;2.408;2023-01-15T07:52:14;100164.06;;;10.13;74.14
21290;BME280;10804;48.988;2.408;2023-01-15T07:54:42;100160.78;;;10.07;74.27
21290;BME280;10804;48.988;2.408;2023-01-15T07:57:10;100158.09;;;10.10;74.19
21290;BME280;10804;48.988;2.408;2023-01-15T07:59:38;100162.41;;;10.11;74.28
21290;BME280;10804;48.988;2.408;2023-01-15T08:02:06;100158.09;;;10.10;74.09
21290;BME280;10804;48.988;2.408;2023-01-15T08:04:33;100157.34;;;10.06;74.02
21290;BME280;10804;48.988;2.408;2023-01-15T08:07:03;100160.78;;;10.07;74.14
21290;BME280;10804;48.988;2.408;2023-01-15T08:09:30;100159.03;;;10.07;74.07
21290;BME280;10804;48.988;2.408;2023-01-15T08:11:58;100150.47;;;10.02;74.46
21290;BME280;10804;48.988;2.408;2023-01-15T08:14:43;100149.66;;;10.02;74.65
21290;BME280;10804;48.988;2.408;2023-01-15T08:17:28;100156.63;;;10.00;74.23
21290;BME280;10804;48.988;2.408;2023-01-15T08:19:56;100151.38;;;10.03;73.86
21290;BME280;10804;48.988;2.408;2023-01-15T08:22:24;100153.19;;;9.99;74.09
21290;BME280;10804;48.988;2.408;2023-01-15T08:24:52;100137.56;;;9.99;74.10
21290;BME280;10804;48.988;2.408;2023-01-15T08:27:19;100141.91;;;9.99;74.01
21290;BME280;10804;48.988;2.408;2023-01-15T08:29:46;100142.66;;;10.02;74.15
21290;BME280;10804;48.988;2.408;2023-01-15T08:32:14;100137.56;;;9.99;74.22
21290;BME280;10804;48.988;2.408;2023-01-15T08:34:41;100143.72;;;9.97;73.91
21290;BME280;10804;48.988;2.408;2023-01-15T08:37:08;100143.72;;;9.97;74.19
21290;BME280;10804;48.988;2.408;2023-01-15T08:39:37;100157.75;;;9.93;74.31
21290;BME280;10804;48.988;2.408;2023-01-15T08:42:04;100148.09;;;9.96;73.91
21290;BME280;10804;48.988;2.408;2023-01-15T08:44:32;100159.47;;;9.94;74.34
21290;BME280;10804;48.988;2.408;2023-01-15T08:46:59;100148.94;;;9.97;74.05
21290;BME280;10804;48.988;2.408;2023-01-15T08:49:26;100149.88;;;9.94;73.99
21290;BME280;10804;48.988;2.408;2023-01-15T08:51:54;100145.53;;;9.95;73.82
21290;BME280;10804;48.988;2.408;2023-01-15T08:54:21;100149.94;;;9.93;74.28
21290;BME280;10804;48.988;2.408;2023-01-15T08:56:52;100139.53;;;9.93;73.97
21290;BME280;10804;48.988;2.408;2023-01-15T08:59:19;100150.75;;;9.95;73.78
21290;BME280;10804;48.988;2.408;2023-01-15T09:01:46;100135.13;;;9.95;73.94
21290;BME280;10804;48.988;2.408;2023-01-15T09:04:14;100140.31;;;9.95;74.04
21290;BME280;10804;48.988;2.408;2023-01-15T09:06:42;100126.59;;;9.90;73.90
21290;BME280;10804;48.988;2.408;2023-01-15T09:09:10;100137.81;;;9.92;74.05
21290;BME280;10804;48.988;2.408;2023-01-15T09:11:38;100137.75;;;9.93;74.18
21290;BME280;10804;48.988;2.408;2023-01-15T09:14:08;100144.63;;;9.96;74.10
21290;BME280;10804;48.988;2.408;2023-01-15T09:16:36;100148.13;;;9.95;74.08
21290;BME280;10804;48.988;2.408;2023-01-15T09:19:04;100137.75;;;9.93;73.92
21290;BME280;10804;48.988;2.408;2023-01-15T09:21:32;100148.94;;;9.97;73.63
21290;BME280;10804;48.988;2.408;2023-01-15T09:24:00;100139.41;;;9.96;73.74
21290;BME280;10804;48.988;2.408;2023-01-15T09:26:29;100140.53;;;9.89;73.11
21290;BME280;10804;48.988;2.408;2023-01-15T09:28:57;100143.91;;;9.65;71.82
21290;BME280;10804;48.988;2.408;2023-01-15T09:31:27;100137.31;;;9.53;71.10
21290;BME280;10804;48.988;2.408;2023-01-15T09:33:54;100141.88;;;9.47;70.79
21290;BME280;10804;48.988;2.408;2023-01-15T09:36:23;100150.19;;;9.58;70.85
21290;BME280;10804;48.988;2.408;2023-01-15T09:38:51;100150.78;;;9.67;70.98
21290;BME280;10804;48.988;2.408;2023-01-15T09:41:19;100163.53;;;9.75;70.84
21290;BME280;10804;48.988;2.408;2023-01-15T09:44:15;100146.84;;;9.80;70.81
21290;BME280;10804;48.988;2.408;2023-01-15T09:46:56;100151.22;;;9.80;70.97
21290;BME280;10804;48.988;2.408;2023-01-15T09:49:36;100167.56;;;9.85;71.16
21290;BME280;10804;48.988;2.408;2023-01-15T09:52:12;100172.63;;;9.89;71.39
21290;BME280;10804;48.988;2.408;2023-01-15T09:54:53;100182.97;;;9.91;71.18
21290;BME280;10804;48.988;2.408;2023-01-15T09:57:23;100170.72;;;9.94;71.51
21290;BME280;10804;48.988;2.408;2023-01-15T09:59:52;100181.09;;;9.96;71.30
21290;BME280;10804;48.988;2.408;2023-01-15T10:02:35;100178.38;;;9.99;71.60
21290;BME280;10804;48.988;2.408;2023-01-15T10:05:10;100187.03;;;10.01;71.36
21290;BME280;10804;48.988;2.408;2023-01-15T10:07:43;100176.53;;;10.04;71.44
21290;BME280;10804;48.988;2.408;2023-01-15T10:10:13;100177.31;;;10.06;71.49
21290;BME280;10804;48.988;2.408;2023-01-15T10:12:43;100170.25;;;10.09;71.23
21290;BME280;10804;48.988;2.408;2023-01-15T10:15:16;100175.31;;;10.14;71.20
21290;BME280;10804;48.988;2.408;2023-01-15T10:17:49;100189.16;;;10.16;71.39
21290;BME280;10804;48.988;2.408;2023-01-15T10:23:33;100179.50;;;10.19;71.46
21290;BME280;10804;48.988;2.408;2023-01-15T10:26:09;100175.03;;;10.23;71.49
21290;BME280;10804;48.988;2.408;2023-01-15T10:28:56;100178.47;;;10.23;71.18
21290;BME280;10804;48.988;2.408;2023-01-15T10:31:35;100161.91;;;10.26;71.57
21290;BME280;10804;48.988;2.408;2023-01-15T10:37:05;100166.03;;;10.31;71.23
21290;BME280;10804;48.988;2.408;2023-01-15T10:39:42;100167.59;;;10.37;71.44
21290;BME280;10804;48.988;2.408;2023-01-15T10:42:21;100170.09;;;10.40;71.28
21290;BME280;10804;48.988;2.408;2023-01-15T10:45:00;100165.69;;;10.42;71.32
21290;BME280;10804;48.988;2.408;2023-01-15T10:47:33;100168.19;;;10.45;71.38
21290;BME280;10804;48.988;2.408;2023-01-15T10:50:14;100166.41;;;10.47;71.58
21290;BME280;10804;48.988;2.408;2023-01-15T10:52:45;100173.38;;;10.45;71.60
21290;BME280;10804;48.988;2.408;2023-01-15T10:55:18;100182.03;;;10.47;71.61
21290;BME280;10804;48.988;2.408;2023-01-15T10:57:51;100172.34;;;10.50;71.84
21290;BME280;10804;48.988;2.408;2023-01-15T11:00:22;100173.09;;;10.54;71.93
21290;BME280;10804;48.988;2.408;2023-01-15T11:03:00;100173.94;;;10.54;71.88
21290;BME280;10804;48.988;2.408;2023-01-15T11:05:31;100175.56;;;10.58;71.94
21290;BME280;10804;48.988;2.408;2023-01-15T11:08:00;100178.94;;;10.60;71.81
21290;BME280;10804;48.988;2.408;2023-01-15T11:10:28;100177.13;;;10.62;71.93
21290;BME280;10804;48.988;2.408;2023-01-15T11:12:59;100177.88;;;10.66;71.44
21290;BME280;10804;48.988;2.408;2023-01-15T11:15:47;100168.22;;;10.68;71.65
21290;BME280;10804;48.988;2.408;2023-01-15T11:18:35;100160.31;;;10.71;71.49
21290;BME280;10804;48.988;2.408;2023-01-15T11:21:24;100157.59;;;10.74;71.44
21290;BME280;10804;48.988;2.408;2023-01-15T11:23:54;100162.72;;;10.77;71.47
21290;BME280;10804;48.988;2.408;2023-01-15T11:26:24;100153.88;;;10.81;71.28
21290;BME280;10804;48.988;2.408;2023-01-15T11:28:52;100153.81;;;10.82;71.37
21290;BME280;10804;48.988;2.408;2023-01-15T11:31:20;100144.13;;;10.86;71.16
21290;BME280;10804;48.988;2.408;2023-01-15T11:33:57;100154.44;;;10.89;70.86
21290;BME280;10804;48.988;2.408;2023-01-15T11:36:28;100139.56;;;10.91;70.89
21290;BME280;10804;48.988;2.408;2023-01-15T11:38:56;100160.28;;;10.95;70.68
21290;BME280;10804;48.988;2.408;2023-01-15T11:41:28;100135.06;;;10.96;70.67
21290;BME280;10804;48.988;2.408;2023-01-15T11:44:18;100133.22;;;10.98;70.64
21290;BME280;10804;48.988;2.408;2023-01-15T11:47:09;100131.31;;;11.03;70.52
21290;BME280;10804;48.988;2.408;2023-01-15T11:49:55;100135.56;;;11.05;70.41
21290;BME280;10804;48.988;2.408;2023-01-15T11:52:45;100139.84;;;11.08;70.48
21290;BME280;10804;48.988;2.408;2023-01-15T11:55:17;100135.41;;;11.10;70.01
21290;BME280;10804;48.988;2.408;2023-01-15T11:57:46;100117.88;;;11.13;70.27
21290;BME280;10804;48.988;2.408;2023-01-15T12:00:20;100123.88;;;11.15;70.31
21290;BME280;10804;48.988;2.408;2023-01-15T12:02:49;100111.63;;;11.17;70.60
21290;BME280;10804;48.988;2.408;2023-01-15T12:05:20;100112.31;;;11.22;70.96
21290;BME280;10804;48.988;2.408;2023-01-15T12:07:53;100105.22;;;11.26;71.20
21290;BME280;10804;48.988;2.408;2023-01-15T12:10:23;100108.59;;;11.28;71.46
21290;BME280;10804;48.988;2.408;2023-01-15T12:13:26;100119.59;;;11.36;71.64
21290;BME280;10804;48.988;2.408;2023-01-15T12:16:02;100104.63;;;11.41;71.50
21290;BME280;10804;48.988;2.408;2023-01-15T12:18:47;100097.47;;;11.46;71.72
21290;BME280;10804;48.988;2.408;2023-01-15T12:21:32;100085.97;;;11.49;71.51
21290;BME280;10804;48.988;2.408;2023-01-15T12:24:19;100084.03;;;11.54;71.60
21290;BME280;10804;48.988;2.408;2023-01-15T12:27:01;100087.34;;;11.59;71.46
21290;BME280;10804;48.988;2.408;2023-01-15T12:29:36;100083.66;;;11.65;71.12
21290;BME280;10804;48.988;2.408;2023-01-15T12:32:09;100084.38;;;11.68;71.22
21290;BME280;10804;48.988;2.408;2023-01-15T12:34:42;100070.28;;;11.72;70.94
21290;BME280;10804;48.988;2.408;2023-01-15T12:37:16;100071.84;;;11.76;70.85
21290;BME280;10804;48.988;2.408;2023-01-15T12:39:51;100076.91;;;11.81;70.81
21290;BME280;10804;48.988;2.408;2023-01-15T12:42:22;100081.97;;;11.84;70.76
21290;BME280;10804;48.988;2.408;2023-01-15T12:45:10;100073.13;;;11.88;70.71
21290;BME280;10804;48.988;2.408;2023-01-15T12:47:42;100065.19;;;11.89;70.29
21290;BME280;10804;48.988;2.408;2023-01-15T12:50:21;100072.84;;;11.94;70.30
21290;BME280;10804;48.988;2.408;2023-01-15T12:52:57;100067.50;;;11.97;70.45
21290;BME280;10804;48.988;2.408;2023-01-15T12:55:29;100067.38;;;12.00;69.99
21290;BME280;10804;48.988;2.408;2023-01-15T12:57:59;100063.84;;;12.01;69.97
21290;BME280;10804;48.988;2.408;2023-01-15T13:00:31;100056.91;;;12.00;70.05
21290;BME280;10804;48.988;2.408;2023-01-15T13:03:08;100044.72;;;12.00;70.01
21290;BME280;10804;48.988;2.408;2023-01-15T13:05:42;100037.69;;;12.01;69.98
21290;BME280;10804;48.988;2.408;2023-01-15T13:08:20;100043.00;;;11.99;69.97
21290;BME280;10804;48.988;2.408;2023-01-15T13:10:50;100042.94;;;12.01;69.74
21290;BME280;10804;48.988;2.408;2023-01-15T13:13:19;100049.00;;;12.01;69.59
21290;BME280;10804;48.988;2.408;2023-01-15T13:16:08;100043.78;;;12.01;69.69
21290;BME280;10804;48.988;2.408;2023-01-15T13:18:45;100043.78;;;12.01;69.81
21290;BME280;10804;48.988;2.408;2023-01-15T13:21:17;100045.53;;;12.01;69.68
21290;BME280;10804;48.988;2.408;2023-01-15T13:24:04;100032.47;;;12.01;69.89
21290;BME280;10804;48.988;2.408;2023-01-15T13:26:51;100036.88;;;12.00;69.79